createdAt,value
2018-11-20T00:00:59.325Z,63.93
2018-11-20T00:04:25.873Z,79.23
2018-11-20T00:07:50.117Z,58.03
2018-11-20T00:11:07.217Z,59.60
2018-11-20T00:14:25.271Z,59.70
2018-11-20T00:17:52.179Z,61.80
2018-11-20T00:21:10.569Z,63.83
2018-11-20T00:24:22.498Z,62.47
2018-11-20T00:27:34.465Z,70.60
2018-11-20T00:30:46.215Z,57.23
2018-11-20T00:34:01.036Z,55.23
2018-11-20T00:37:10.108Z,59.47
2018-11-20T00:40:15.358Z,69.63
2018-11-20T00:43:33.506Z,63.83
2018-11-20T00:46:40.847Z,66.83
2018-11-20T00:49:50.462Z,81.63
2018-11-20T00:53:14.244Z,66.67
2018-11-20T00:56:52.477Z,75.77
2018-11-20T00:59:56.227Z,72.93
2018-11-20T01:03:05.316Z,65.07
2018-11-20T01:06:32.864Z,68.50
2018-11-20T01:09:57.881Z,65.53
2018-11-20T01:13:05.842Z,59.00
2018-11-20T01:16:13.165Z,55.00
2018-11-20T01:19:27.958Z,70.10
2018-11-20T01:22:39.871Z,62.63
2018-11-20T01:25:54.911Z,72.73
2018-11-20T01:29:06.015Z,81.67
2018-11-20T01:32:13.184Z,91.10
2018-11-20T01:35:19.933Z,100.70
2018-11-20T01:38:25.964Z,97.10
2018-11-20T01:41:43.361Z,92.60
2018-11-20T01:45:04.034Z,93.83
2018-11-20T01:48:12.779Z,88.93
2018-11-20T01:51:20.320Z,97.87
2018-11-20T01:54:34.907Z,105.50
2018-11-20T01:57:36.981Z,93.00
2018-11-20T02:00:44.611Z,105.13
2018-11-20T02:03:53.342Z,96.53
2018-11-20T02:07:04.501Z,95.93
2018-11-20T02:10:22.224Z,76.47
2018-11-20T02:14:05.087Z,94.03
2018-11-20T02:17:28.681Z,88.47
2018-11-20T02:20:32.512Z,88.90
2018-11-20T02:23:33.002Z,68.83
2018-11-20T02:26:40.462Z,83.63
2018-11-20T02:29:48.470Z,79.27
2018-11-20T02:33:06.571Z,83.37
2018-11-20T02:36:12.716Z,79.40
2018-11-20T02:39:26.705Z,85.53
2018-11-20T02:42:29.321Z,84.33
2018-11-20T02:45:47.044Z,77.20
2018-11-20T02:49:01.665Z,75.33
2018-11-20T02:52:12.782Z,76.33
2018-11-20T02:55:36.591Z,91.90
2018-11-20T02:58:43.818Z,106.93
2018-11-20T03:02:11.678Z,104.50
2018-11-20T03:05:38.690Z,147.17
2018-11-20T03:08:46.534Z,119.23
2018-11-20T03:11:54.163Z,119.03
2018-11-20T03:15:03.463Z,115.63
2018-11-20T03:18:08.755Z,102.33
2018-11-20T03:21:17.675Z,115.57
2018-11-20T03:24:26.346Z,118.20
2018-11-20T03:27:37.718Z,91.67
2018-11-20T03:31:15.370Z,109.13
2018-11-20T03:34:25.551Z,85.33
2018-11-20T03:37:34.732Z,93.63
2018-11-20T03:40:43.171Z,173.50
2018-11-20T03:43:50.176Z,114.73
2018-11-20T03:47:07.528Z,96.23
2018-11-20T03:50:15.011Z,74.53
2018-11-20T03:53:15.427Z,99.17
2018-11-20T03:56:22.687Z,81.73
2018-11-20T03:59:30.600Z,114.77
2018-11-20T04:02:39.599Z,126.40
2018-11-20T04:05:47.066Z,103.00
2018-11-20T04:09:02.580Z,91.47
2018-11-20T04:12:14.265Z,83.90
2018-11-20T04:15:28.491Z,93.63
2018-11-20T04:18:42.656Z,112.40
2018-11-20T04:21:41.683Z,99.03
2018-11-20T04:25:02.516Z,98.60
2018-11-20T04:28:15.462Z,46.83
2018-11-20T04:31:59.286Z,70.70
2018-11-20T04:35:09.437Z,68.53
2018-11-20T04:38:11.658Z,70.20
2018-11-20T04:41:29.335Z,78.83
2018-11-20T04:44:51.872Z,92.37
2018-11-20T04:47:59.131Z,79.13
2018-11-20T04:51:13.526Z,67.63
2018-11-20T04:54:40.811Z,72.23
2018-11-20T04:57:49.365Z,79.83
2018-11-20T05:00:56.937Z,77.13
2018-11-20T05:04:14.813Z,79.20
2018-11-20T05:07:15.998Z,80.73
2018-11-20T05:10:25.248Z,83.93
2018-11-20T05:13:38.306Z,67.50
2018-11-20T05:16:47.311Z,72.87
2018-11-20T05:20:01.581Z,62.03
2018-11-20T05:23:06.048Z,61.47
2018-11-20T05:26:07.478Z,76.90
2018-11-20T05:29:25.278Z,79.03
2018-11-20T05:32:33.820Z,80.23
2018-11-20T05:35:41.189Z,138.73
2018-11-20T05:38:59.192Z,100.30
2018-11-20T05:42:25.990Z,98.83
2018-11-20T05:45:33.620Z,83.70
2018-11-20T05:48:41.181Z,97.30
2018-11-20T05:51:49.310Z,108.23
2018-11-20T05:54:48.487Z,124.33
2018-11-20T05:57:49.630Z,128.03
2018-11-20T06:00:58.535Z,110.80
2018-11-20T06:04:13.938Z,295.03
2018-11-20T06:07:25.695Z,179.83
2018-11-20T06:10:33.225Z,308.83
2018-11-20T06:13:44.817Z,163.53
2018-11-20T06:17:02.632Z,130.93
2018-11-20T06:20:10.038Z,150.87
2018-11-20T06:23:17.743Z,157.17
2018-11-20T06:26:26.503Z,104.00
2018-11-20T06:29:34.053Z,221.17
2018-11-20T06:32:43.928Z,107.07
2018-11-20T06:35:46.561Z,109.80
2018-11-20T06:38:53.234Z,61.27
2018-11-20T06:42:04.931Z,78.47
2018-11-20T06:45:12.721Z,90.37
2018-11-20T06:48:27.254Z,69.97
2018-11-20T06:51:34.594Z,55.73
2018-11-20T06:54:42.750Z,91.17
2018-11-20T06:57:57.698Z,82.20
2018-11-20T07:01:05.879Z,111.30
2018-11-20T07:04:22.368Z,81.33
2018-11-20T07:07:29.830Z,92.10
2018-11-20T07:10:37.557Z,122.80
2018-11-20T07:13:47.240Z,97.07
2018-11-20T07:17:03.182Z,109.00
2018-11-20T07:20:10.557Z,130.27
2018-11-20T07:23:31.314Z,134.50
2018-11-20T07:26:48.740Z,98.80
2018-11-20T07:30:00.313Z,79.67
2018-11-20T07:33:05.642Z,69.47
2018-11-20T07:36:13.609Z,95.77
2018-11-20T07:39:25.437Z,92.73
2018-11-20T07:42:37.172Z,89.23
2018-11-20T07:46:00.839Z,80.43
2018-11-20T07:49:10.212Z,78.33
2018-11-20T07:52:18.693Z,86.50
2018-11-20T07:55:27.745Z,115.87
2018-11-20T07:58:42.992Z,102.47
2018-11-20T08:01:55.400Z,109.83
2018-11-20T08:04:54.530Z,118.03
2018-11-20T08:08:08.557Z,242.90
2018-11-20T08:11:16.461Z,137.13
2018-11-20T08:14:25.584Z,100.17
2018-11-20T08:17:34.549Z,104.87
2018-11-20T08:20:54.778Z,99.80
2018-11-20T08:24:03.736Z,112.07
2018-11-20T08:27:24.668Z,118.27
2018-11-20T08:30:33.812Z,121.03
2018-11-20T08:34:00.220Z,128.37
2018-11-20T08:37:08.040Z,117.30
2018-11-20T08:40:16.902Z,93.97
2018-11-20T08:43:31.784Z,150.27
2018-11-20T08:46:31.926Z,111.17
2018-11-20T08:49:39.655Z,83.47
2018-11-20T08:52:47.333Z,67.30
2018-11-20T08:55:54.530Z,80.30
2018-11-20T08:59:01.875Z,131.60
2018-11-20T09:02:10.961Z,240.00
2018-11-20T09:05:19.389Z,163.73
2018-11-20T09:08:39.696Z,206.80
2018-11-20T09:12:06.722Z,149.50
2018-11-20T09:15:27.692Z,316.93
2018-11-20T09:18:35.062Z,156.87
2018-11-20T09:21:47.071Z,172.23
2018-11-20T09:24:51.372Z,171.13
2018-11-20T09:28:02.852Z,184.97
2018-11-20T09:31:11.549Z,171.77
2018-11-20T09:34:23.035Z,203.63
2018-11-20T09:37:40.551Z,218.10
2018-11-20T09:40:55.643Z,233.27
2018-11-20T09:44:00.961Z,169.93
2018-11-20T09:47:08.766Z,150.17
2018-11-20T09:50:08.341Z,196.80
2018-11-20T09:53:16.241Z,227.33
2018-11-20T09:56:22.960Z,252.43
2018-11-20T09:59:40.337Z,315.13
2018-11-20T10:02:48.078Z,169.53
2018-11-20T10:06:12.261Z,202.07
2018-11-20T10:09:19.556Z,166.07
2018-11-20T10:12:45.852Z,223.40
2018-11-20T10:16:12.681Z,194.60
2018-11-20T10:19:24.466Z,152.20
2018-11-20T10:22:31.827Z,217.03
2018-11-20T10:25:45.674Z,248.00
2018-11-20T10:28:52.540Z,227.10
2018-11-20T10:32:18.976Z,191.63
2018-11-20T10:35:29.076Z,186.23
2018-11-20T10:38:46.219Z,158.43
2018-11-20T10:42:00.568Z,127.73
2018-11-20T10:45:09.007Z,132.03
2018-11-20T10:48:13.304Z,132.47
2018-11-20T10:51:23.663Z,103.23
2018-11-20T10:54:41.212Z,141.67
2018-11-20T10:57:55.982Z,138.80
2018-11-20T11:01:03.441Z,114.00
2018-11-20T11:04:18.188Z,108.50
2018-11-20T11:07:25.690Z,124.27
2018-11-20T11:10:34.391Z,114.17
2018-11-20T11:13:55.304Z,125.30
2018-11-20T11:17:12.473Z,172.40
2018-11-20T11:20:17.506Z,195.40
2018-11-20T11:23:35.500Z,209.00
2018-11-20T11:26:54.580Z,180.10
2018-11-20T11:30:06.346Z,222.90
2018-11-20T11:33:24.269Z,335.73
2018-11-20T11:36:39.120Z,311.03
2018-11-20T11:39:46.550Z,224.53
2018-11-20T11:42:54.232Z,283.60
2018-11-20T11:46:03.514Z,283.07
2018-11-20T11:49:21.602Z,208.90
2018-11-20T11:52:39.148Z,204.03
2018-11-20T11:55:46.854Z,207.30
2018-11-20T11:58:58.486Z,258.33
2018-11-20T12:05:30.366Z,116.63
2018-11-20T12:08:37.592Z,149.37
2018-11-20T12:11:54.937Z,191.00
2018-11-20T12:14:55.512Z,294.43
2018-11-20T12:18:19.433Z,244.93
2018-11-20T12:21:40.661Z,286.10
2018-11-20T12:24:49.363Z,303.40
2018-11-20T12:27:51.613Z,249.37
2018-11-20T12:30:59.075Z,232.17
2018-11-20T12:35:13.618Z,245.77
2018-11-20T12:38:21.116Z,222.00
2018-11-20T12:41:28.630Z,209.93
2018-11-20T12:44:36.659Z,194.37
2018-11-20T12:48:03.861Z,222.90
2018-11-20T12:51:09.515Z,171.80
2018-11-20T12:54:20.705Z,173.40
2018-11-20T12:57:27.526Z,202.83
2018-11-20T13:00:47.921Z,209.40
2018-11-20T13:03:54.738Z,162.83
2018-11-20T13:07:08.994Z,231.17
2018-11-20T13:10:29.010Z,270.87
2018-11-20T13:13:39.928Z,195.63
2018-11-20T13:16:50.885Z,193.10
2018-11-20T13:19:40.900Z,208.67
2018-11-20T13:22:33.562Z,274.33
2018-11-20T13:28:10.322Z,307.00
2018-11-20T13:31:09.068Z,325.80
2018-11-20T13:34:07.374Z,345.23
2018-11-20T13:36:57.165Z,321.57
2018-11-20T13:39:58.704Z,320.70
2018-11-20T13:43:01.780Z,285.63
2018-11-20T13:45:54.509Z,287.17
2018-11-20T13:48:42.860Z,301.70
2018-11-20T13:51:31.842Z,299.77
2018-11-20T13:54:32.385Z,329.80
2018-11-20T13:57:40.562Z,304.07
2018-11-20T14:00:31.087Z,302.37
2018-11-20T14:03:31.403Z,316.90
2018-11-20T14:06:23.842Z,310.27
2018-11-20T14:09:13.623Z,344.20
2018-11-20T14:12:14.857Z,445.07
2018-11-20T14:15:03.314Z,477.10
2018-11-20T14:17:51.844Z,498.93
2018-11-20T14:20:39.848Z,489.60
2018-11-20T14:23:35.183Z,524.30
2018-11-20T14:26:30.766Z,479.37
2018-11-20T14:29:18.653Z,526.93
2018-11-20T14:32:08.164Z,285.73
2018-11-20T14:34:48.338Z,290.47
2018-11-20T14:37:38.028Z,251.10
2018-11-20T14:40:39.698Z,217.27
2018-11-20T14:43:34.867Z,214.17
2018-11-20T14:46:24.472Z,208.37
2018-11-20T14:49:25.970Z,229.63
2018-11-20T14:52:19.716Z,237.40
2018-11-20T14:57:38.944Z,244.73
2018-11-20T15:00:30.677Z,225.80
2018-11-20T15:03:19.316Z,244.00
2018-11-20T15:06:08.636Z,284.03
2018-11-20T15:08:56.738Z,308.77
2018-11-20T15:12:04.283Z,377.20
2018-11-20T15:14:56.592Z,403.00
2018-11-20T15:17:58.666Z,401.20
2018-11-20T15:20:46.981Z,432.33
2018-11-20T15:23:45.535Z,468.80
2018-11-20T15:26:36.685Z,488.03
2018-11-20T15:29:26.309Z,288.17
2018-11-20T15:32:25.119Z,302.50
2018-11-20T15:35:29.652Z,287.47
2018-11-20T15:38:27.934Z,266.10
2018-11-20T15:41:24.224Z,362.53
2018-11-20T15:44:12.499Z,407.00
2018-11-20T15:47:17.217Z,389.33
2018-11-20T15:50:09.364Z,450.37
2018-11-20T15:52:57.839Z,374.43
2018-11-20T15:55:46.075Z,365.20
2018-11-20T15:58:34.772Z,342.03
2018-11-20T16:01:23.570Z,402.97
2018-11-20T16:04:11.763Z,370.20
2018-11-20T16:07:04.055Z,307.90
2018-11-20T16:09:51.988Z,257.63
2018-11-20T16:12:42.915Z,342.67
2018-11-20T16:15:31.143Z,216.90
2018-11-20T16:18:32.949Z,308.87
2018-11-20T16:21:31.202Z,326.17
2018-11-20T16:24:20.794Z,223.37
2018-11-20T16:27:16.098Z,260.40
2018-11-20T16:30:04.588Z,275.50
2018-11-20T16:33:00.497Z,295.80
2018-11-20T16:36:03.096Z,529.97
2018-11-20T16:39:06.733Z,411.53
2018-11-20T16:41:54.799Z,398.23
2018-11-20T16:44:39.587Z,321.93
2018-11-20T16:47:32.046Z,272.50
2018-11-20T16:50:17.758Z,290.37
2018-11-20T16:53:15.330Z,256.63
2018-11-20T16:55:56.014Z,241.00
2018-11-20T16:58:54.592Z,300.80
2018-11-20T17:01:48.328Z,367.70
2018-11-20T17:04:56.397Z,322.33
2018-11-20T17:07:56.304Z,335.97
2018-11-20T17:10:54.721Z,378.90
2018-11-20T17:13:44.354Z,435.77
2018-11-20T17:16:52.311Z,490.47
2018-11-20T17:20:00.219Z,565.20
2018-11-20T17:22:48.791Z,387.83
2018-11-20T17:25:36.771Z,325.33
2018-11-20T17:28:25.091Z,286.20
2018-11-20T17:31:19.841Z,277.00
2018-11-20T17:34:12.376Z,295.47
2018-11-20T17:37:11.128Z,325.47
2018-11-20T17:40:03.640Z,446.00
2018-11-20T17:42:59.177Z,551.53
2018-11-20T17:46:06.774Z,576.87
2018-11-20T17:48:56.458Z,538.07
2018-11-20T17:51:58.277Z,564.33
2018-11-20T17:54:53.910Z,497.03
2018-11-20T17:57:58.852Z,475.60
2018-11-20T18:00:57.373Z,470.30
2018-11-20T18:04:04.735Z,488.43
2018-11-20T18:06:54.376Z,455.73
2018-11-20T18:09:58.927Z,407.60
2018-11-20T18:12:58.143Z,417.83
2018-11-20T18:15:53.996Z,442.67
2018-11-20T18:18:42.018Z,524.87
2018-11-20T18:21:37.535Z,551.53
2018-11-20T18:24:38.698Z,621.90
2018-11-20T18:27:43.427Z,582.53
2018-11-20T18:30:42.390Z,459.67
2018-11-20T18:33:39.833Z,461.93
2018-11-20T18:36:25.467Z,454.37
2018-11-20T18:39:23.855Z,519.77
2018-11-20T18:42:06.980Z,495.63
2018-11-20T18:44:55.350Z,526.37
2018-11-20T18:47:44.981Z,574.77
2018-11-20T18:50:43.593Z,673.60
2018-11-20T18:53:37.437Z,600.37
2018-11-20T18:56:36.811Z,519.90
2018-11-20T18:59:26.740Z,498.67
2018-11-20T19:02:16.014Z,445.73
2018-11-20T19:05:16.841Z,399.67
2018-11-20T19:08:13.414Z,313.93
2018-11-20T19:11:01.399Z,332.63
2018-11-20T19:13:51.083Z,346.37
2018-11-20T19:16:38.957Z,369.23
2018-11-20T19:19:37.886Z,377.73
2018-11-20T19:22:26.915Z,391.93
2018-11-20T19:25:16.632Z,369.40
2018-11-20T19:28:04.637Z,336.47
2018-11-20T19:30:50.484Z,342.27
2018-11-20T19:33:39.165Z,422.33
2018-11-20T19:36:36.679Z,365.20
2018-11-20T19:39:42.104Z,402.00
2018-11-20T19:42:46.668Z,583.53
2018-11-20T19:45:42.403Z,496.77
2018-11-20T19:48:30.780Z,512.87
2018-11-20T19:51:19.192Z,504.20
2018-11-20T19:54:07.435Z,471.30
2018-11-20T19:56:55.619Z,470.43
2018-11-20T19:59:45.743Z,437.60
2018-11-20T20:02:36.594Z,466.00
2018-11-20T20:05:27.879Z,460.70
2018-11-20T20:08:29.882Z,456.37
2018-11-20T20:11:28.704Z,430.57
2018-11-20T20:14:18.205Z,464.20
2018-11-20T20:17:07.076Z,428.77
2018-11-20T20:20:01.225Z,445.83
2018-11-20T20:22:42.261Z,432.87
2018-11-20T20:25:46.971Z,431.13
2018-11-20T20:28:36.703Z,418.03
2018-11-20T20:31:30.507Z,446.93
2018-11-20T20:34:23.183Z,446.07
2018-11-20T20:37:31.403Z,417.00
2018-11-20T20:40:24.115Z,461.37
2018-11-20T20:43:16.734Z,456.73
2018-11-20T20:46:11.985Z,452.00
2018-11-20T20:49:16.377Z,447.83
2018-11-20T20:52:04.445Z,468.07
2018-11-20T20:55:05.996Z,450.13
2018-11-20T20:57:49.912Z,472.43
2018-11-20T21:00:56.578Z,509.17
2018-11-20T21:04:05.291Z,463.80
2018-11-20T21:07:31.326Z,521.83
2018-11-20T21:10:38.502Z,510.83
2018-11-20T21:13:52.958Z,515.40
2018-11-20T21:17:16.771Z,518.57
2018-11-20T21:20:30.342Z,531.90
2018-11-20T21:23:40.789Z,535.10
2018-11-20T21:26:58.204Z,535.63
2018-11-20T21:30:11.749Z,434.83
2018-11-20T21:33:28.792Z,376.70
2018-11-20T21:36:35.106Z,422.93
2018-11-20T21:39:53.612Z,416.37
2018-11-20T21:43:08.458Z,450.60
2018-11-20T21:46:28.165Z,421.30
2018-11-20T21:49:43.739Z,400.17
2018-11-20T21:52:57.552Z,409.87
2018-11-20T21:56:04.759Z,437.90
2018-11-20T21:59:20.186Z,467.37
2018-11-20T22:02:27.034Z,409.57
2018-11-20T22:05:35.330Z,426.43
2018-11-20T22:08:45.980Z,433.47
2018-11-20T22:12:09.279Z,427.87
2018-11-20T22:15:29.712Z,423.63
2018-11-20T22:18:47.110Z,396.87
2018-11-20T22:21:58.028Z,332.33
2018-11-20T22:25:14.908Z,380.23
2018-11-20T22:28:30.026Z,334.13
2018-11-20T22:31:44.360Z,381.20
2018-11-20T22:34:51.256Z,354.73
2018-11-20T22:38:14.579Z,362.30
2018-11-20T22:41:40.630Z,372.97
2018-11-20T22:44:57.794Z,359.33
2018-11-20T22:48:12.983Z,326.40
2018-11-20T22:51:20.011Z,332.60
2018-11-20T22:54:30.774Z,353.40
2018-11-20T22:57:38.396Z,333.77
2018-11-20T23:00:34.924Z,347.87
2018-11-20T23:03:41.815Z,307.47
2018-11-20T23:06:51.794Z,318.93
2018-11-20T23:09:40.376Z,331.67
2018-11-20T23:12:29.336Z,346.20
2018-11-20T23:15:18.563Z,366.10
2018-11-20T23:18:07.618Z,375.73
2018-11-20T23:20:56.883Z,375.73
2018-11-20T23:23:45.586Z,358.87
2018-11-20T23:26:34.453Z,351.13
2018-11-20T23:29:23.462Z,324.20
2018-11-20T23:32:12.702Z,314.60
2018-11-20T23:35:01.732Z,354.17
2018-11-20T23:37:50.635Z,373.43
2018-11-20T23:40:39.639Z,390.03
2018-11-20T23:43:28.499Z,324.43
2018-11-20T23:46:17.596Z,299.10
2018-11-20T23:49:06.480Z,276.80
2018-11-20T23:51:55.710Z,239.23
2018-11-20T23:54:44.749Z,234.13
2018-11-20T23:57:34.338Z,244.87
